createdAt,value
2018-02-09T00:00:36.508Z,47.22
2018-02-09T00:03:03.957Z,49.40
2018-02-09T00:05:31.426Z,47.15
2018-02-09T00:07:58.890Z,46.55
2018-02-09T00:10:27.118Z,49.00
2018-02-09T00:12:54.583Z,48.08
2018-02-09T00:15:22.039Z,47.88
2018-02-09T00:17:50.273Z,45.45
2018-02-09T00:20:18.546Z,46.13
2018-02-09T00:22:52.777Z,47.85
2018-02-09T00:25:20.228Z,46.75
2018-02-09T00:27:47.680Z,46.35
2018-02-09T00:30:15.146Z,46.80
2018-02-09T00:32:42.614Z,45.72
2018-02-09T00:35:10.069Z,45.17
2018-02-09T00:37:37.539Z,49.55
2018-02-09T00:40:05.015Z,44.65
2018-02-09T00:42:32.479Z,43.97
2018-02-09T00:44:59.930Z,45.65
2018-02-09T00:47:27.816Z,47.30
2018-02-09T00:49:55.264Z,44.45
2018-02-09T00:52:23.543Z,48.90
2018-02-09T00:54:51.006Z,47.15
2018-02-09T00:57:18.483Z,48.20
2018-02-09T00:59:46.707Z,48.50
2018-02-09T01:02:14.168Z,47.60
2018-02-09T01:04:41.626Z,48.15
2018-02-09T01:07:09.100Z,48.08
2018-02-09T01:09:36.558Z,48.38
2018-02-09T01:12:04.008Z,47.33
2018-02-09T01:14:32.992Z,47.78
2018-02-09T01:17:00.435Z,48.85
2018-02-09T01:19:27.892Z,48.38
2018-02-09T01:21:55.353Z,43.80
2018-02-09T01:24:22.820Z,47.25
2018-02-09T01:26:50.289Z,47.97
2018-02-09T01:29:17.755Z,47.25
2018-02-09T01:31:45.218Z,47.95
2018-02-09T01:34:13.442Z,50.80
2018-02-09T01:36:40.913Z,52.28
2018-02-09T01:39:08.363Z,49.65
2018-02-09T01:41:35.823Z,49.03
2018-02-09T01:44:03.272Z,46.20
2018-02-09T01:46:30.739Z,43.50
2018-02-09T01:48:58.200Z,45.53
2018-02-09T01:51:25.665Z,47.10
2018-02-09T01:53:53.901Z,49.50
2018-02-09T01:56:21.357Z,48.17
2018-02-09T01:58:48.816Z,52.42
2018-02-09T02:01:16.273Z,47.35
2018-02-09T02:03:43.720Z,48.50
2018-02-09T02:06:11.187Z,47.17
2018-02-09T02:08:38.651Z,46.53
2018-02-09T02:11:06.115Z,45.92
2018-02-09T02:13:33.630Z,47.00
2018-02-09T02:16:01.862Z,45.58
2018-02-09T02:18:29.319Z,48.33
2018-02-09T02:20:56.769Z,44.05
2018-02-09T02:23:24.229Z,48.40
2018-02-09T02:25:51.702Z,50.80
2018-02-09T02:28:19.143Z,49.83
2018-02-09T02:30:46.610Z,48.70
2018-02-09T02:33:14.083Z,47.88
2018-02-09T02:35:41.537Z,46.50
2018-02-09T02:38:08.984Z,43.08
2018-02-09T02:40:36.463Z,43.28
2018-02-09T02:43:03.923Z,42.47
2018-02-09T02:45:32.154Z,42.40
2018-02-09T02:48:00.370Z,42.97
2018-02-09T02:50:28.621Z,42.53
2018-02-09T02:52:56.474Z,47.17
2018-02-09T02:55:23.934Z,47.38
2018-02-09T02:57:51.389Z,47.72
2018-02-09T03:00:18.850Z,46.63
2018-02-09T03:02:46.313Z,47.47
2018-02-09T03:05:13.770Z,48.03
2018-02-09T03:07:41.225Z,45.90
2018-02-09T03:10:08.686Z,45.65
2018-02-09T03:12:36.154Z,46.10
2018-02-09T03:15:03.611Z,47.78
2018-02-09T03:17:31.066Z,46.65
2018-02-09T03:19:58.523Z,45.35
2018-02-09T03:22:26.004Z,46.08
2018-02-09T03:24:54.236Z,48.63
2018-02-09T03:27:21.680Z,49.17
2018-02-09T03:29:49.140Z,48.08
2018-02-09T03:32:16.609Z,47.30
2018-02-09T03:34:44.072Z,50.20
2018-02-09T03:37:11.528Z,46.70
2018-02-09T03:39:38.996Z,46.83
2018-02-09T03:42:06.456Z,50.08
2018-02-09T03:44:33.916Z,44.90
2018-02-09T03:47:01.446Z,43.15
2018-02-09T03:49:28.902Z,41.30
2018-02-09T03:51:56.752Z,43.30
2018-02-09T03:54:24.969Z,46.05
2018-02-09T03:56:52.438Z,45.08
2018-02-09T03:59:20.673Z,45.97
2018-02-09T04:01:48.131Z,46.72
2018-02-09T04:04:15.607Z,46.53
2018-02-09T04:06:43.073Z,46.08
2018-02-09T04:09:10.531Z,44.85
2018-02-09T04:11:38.781Z,46.78
2018-02-09T04:14:06.254Z,43.58
2018-02-09T04:16:33.722Z,45.15
2018-02-09T04:19:01.949Z,46.50
2018-02-09T04:21:29.417Z,43.78
2018-02-09T04:23:56.899Z,43.97
2018-02-09T04:26:24.422Z,44.83
2018-02-09T04:28:51.898Z,45.67
2018-02-09T04:31:19.388Z,46.25
2018-02-09T04:33:46.808Z,45.88
2018-02-09T04:36:14.271Z,48.25
2018-02-09T04:38:41.742Z,46.37
2018-02-09T04:41:09.201Z,45.88
2018-02-09T04:43:36.664Z,46.33
2018-02-09T04:46:04.113Z,45.42
2018-02-09T04:48:31.591Z,42.62
2018-02-09T04:50:59.830Z,40.72
2018-02-09T04:53:27.310Z,46.00
2018-02-09T04:55:54.770Z,45.40
2018-02-09T04:58:23.001Z,44.92
2018-02-09T05:00:50.462Z,48.65
2018-02-09T05:03:17.925Z,44.65
2018-02-09T05:05:45.390Z,46.15
2018-02-09T05:08:12.852Z,48.13
2018-02-09T05:10:40.306Z,46.03
2018-02-09T05:13:07.768Z,46.40
2018-02-09T05:15:35.246Z,47.72
2018-02-09T05:18:03.490Z,47.42
2018-02-09T05:20:30.961Z,47.03
2018-02-09T05:22:58.432Z,45.28
2018-02-09T05:25:25.883Z,47.78
2018-02-09T05:27:53.336Z,50.10
2018-02-09T05:30:20.804Z,48.05
2018-02-09T05:32:49.036Z,46.58
2018-02-09T05:35:16.494Z,50.38
2018-02-09T05:37:43.943Z,45.58
2018-02-09T05:40:11.407Z,46.13
2018-02-09T05:42:38.869Z,44.83
2018-02-09T05:45:06.342Z,46.70
2018-02-09T05:47:33.805Z,48.45
2018-02-09T05:50:01.253Z,46.03
2018-02-09T05:52:28.833Z,42.00
2018-02-09T05:54:56.684Z,39.85
2018-02-09T05:57:24.170Z,45.63
2018-02-09T05:59:52.391Z,46.70
2018-02-09T06:02:19.856Z,56.47
2018-02-09T06:04:47.311Z,46.25
2018-02-09T06:07:14.786Z,45.78
2018-02-09T06:09:42.243Z,51.42
2018-02-09T06:12:09.716Z,44.50
2018-02-09T06:14:37.958Z,44.50
2018-02-09T06:17:05.437Z,48.50
2018-02-09T06:19:32.904Z,48.92
2018-02-09T06:22:01.183Z,51.17
2018-02-09T06:24:29.404Z,45.65
2018-02-09T06:26:57.415Z,44.47
2018-02-09T06:29:24.865Z,45.90
2018-02-09T06:31:52.338Z,48.15
2018-02-09T06:34:20.703Z,43.55
2018-02-09T06:36:48.152Z,49.10
2018-02-09T06:39:15.620Z,51.58
2018-02-09T06:41:43.085Z,47.95
2018-02-09T06:44:11.315Z,48.40
2018-02-09T06:46:38.764Z,46.45
2018-02-09T06:49:06.218Z,46.85
2018-02-09T06:51:33.686Z,43.20
2018-02-09T06:54:01.141Z,45.60
2018-02-09T06:56:28.598Z,39.00
2018-02-09T06:58:56.123Z,41.47
2018-02-09T07:01:23.576Z,45.55
2018-02-09T07:03:51.805Z,45.58
2018-02-09T07:06:19.253Z,46.55
2018-02-09T07:08:46.718Z,43.33
2018-02-09T07:11:14.180Z,45.67
2018-02-09T07:13:41.650Z,47.35
2018-02-09T07:16:09.105Z,44.97
2018-02-09T07:18:36.577Z,47.83
2018-02-09T07:21:04.804Z,46.60
2018-02-09T07:23:33.019Z,50.05
2018-02-09T07:26:00.480Z,47.83
2018-02-09T07:28:27.930Z,45.58
2018-02-09T07:30:55.392Z,46.45
2018-02-09T07:33:22.854Z,47.55
2018-02-09T07:35:50.319Z,48.50
2018-02-09T07:38:18.479Z,48.38
2018-02-09T07:40:45.931Z,47.45
2018-02-09T07:43:14.181Z,45.88
2018-02-09T07:45:41.610Z,46.13
2018-02-09T07:48:09.065Z,42.80
2018-02-09T07:50:36.526Z,45.10
2018-02-09T07:53:03.984Z,44.95
2018-02-09T07:55:31.433Z,39.10
2018-02-09T07:57:58.893Z,40.78
2018-02-09T08:00:26.355Z,39.63
2018-02-09T08:02:54.590Z,42.42
2018-02-09T08:05:22.472Z,44.60
2018-02-09T08:07:50.682Z,43.80
2018-02-09T08:10:18.146Z,43.40
2018-02-09T08:12:45.608Z,42.65
2018-02-09T08:15:13.072Z,43.28
2018-02-09T08:17:40.528Z,42.22
2018-02-09T08:20:08.007Z,41.15
2018-02-09T08:22:35.463Z,43.65
2018-02-09T08:25:02.918Z,39.53
2018-02-09T08:27:30.375Z,37.67
2018-02-09T08:29:57.820Z,38.25
2018-02-09T08:32:25.283Z,38.10
2018-02-09T08:34:52.748Z,40.55
2018-02-09T08:37:20.195Z,36.63
2018-02-09T08:39:48.586Z,37.05
2018-02-09T08:42:16.097Z,38.20
2018-02-09T08:44:43.547Z,36.97
2018-02-09T08:47:11.008Z,34.78
2018-02-09T08:49:38.458Z,35.95
2018-02-09T08:52:05.908Z,35.72
2018-02-09T08:54:33.364Z,30.17
2018-02-09T08:57:00.833Z,28.48
2018-02-09T08:59:28.298Z,26.92
2018-02-09T09:01:55.766Z,26.62
2018-02-09T09:04:23.982Z,28.38
2018-02-09T09:06:52.207Z,28.27
2018-02-09T09:09:19.673Z,28.87
2018-02-09T09:11:47.161Z,28.95
2018-02-09T09:14:15.378Z,28.33
2018-02-09T09:16:42.884Z,27.33
2018-02-09T09:19:10.328Z,29.10
2018-02-09T09:21:37.804Z,28.70
2018-02-09T09:24:05.255Z,28.25
2018-02-09T09:26:32.714Z,28.27
2018-02-09T09:29:00.165Z,29.80
2018-02-09T09:31:27.639Z,26.02
2018-02-09T09:33:55.867Z,28.83
2018-02-09T09:36:23.320Z,29.35
2018-02-09T09:38:50.777Z,27.45
2018-02-09T09:41:19.011Z,27.08
2018-02-09T09:43:46.466Z,29.15
2018-02-09T09:46:13.937Z,28.17
2018-02-09T09:48:41.382Z,28.38
2018-02-09T09:51:08.832Z,28.70
2018-02-09T09:53:37.057Z,28.77
2018-02-09T09:56:04.516Z,28.08
2018-02-09T09:58:31.967Z,27.23
2018-02-09T10:00:59.426Z,26.73
2018-02-09T10:03:26.881Z,26.77
2018-02-09T10:05:54.337Z,25.92
2018-02-09T10:08:21.803Z,27.35
2018-02-09T10:10:49.266Z,27.48
2018-02-09T10:13:16.728Z,29.17
2018-02-09T10:15:44.179Z,28.00
2018-02-09T10:18:11.641Z,27.65
2018-02-09T10:20:39.093Z,30.00
2018-02-09T10:23:06.558Z,29.95
2018-02-09T10:25:34.044Z,28.95
2018-02-09T10:28:02.244Z,27.83
2018-02-09T10:30:29.702Z,28.20
2018-02-09T10:32:57.155Z,30.25
2018-02-09T10:35:24.626Z,28.27
2018-02-09T10:37:52.104Z,28.80
2018-02-09T10:40:19.555Z,26.23
2018-02-09T10:42:47.016Z,28.42
2018-02-09T10:45:14.470Z,27.98
2018-02-09T10:47:41.935Z,30.08
2018-02-09T10:50:09.408Z,28.45
2018-02-09T10:52:36.855Z,28.38
2018-02-09T10:55:04.319Z,30.37
2018-02-09T10:57:31.887Z,29.10
2018-02-09T11:00:00.125Z,27.67
2018-02-09T11:02:27.636Z,27.87
2018-02-09T11:04:55.248Z,28.35
2018-02-09T11:07:23.123Z,29.00
2018-02-09T11:09:51.337Z,29.35
2018-02-09T11:12:21.604Z,28.23
2018-02-09T11:14:49.056Z,29.98
2018-02-09T11:17:16.528Z,27.48
2018-02-09T11:19:43.980Z,27.20
2018-02-09T11:22:11.439Z,28.45
2018-02-09T11:24:38.900Z,28.00
2018-02-09T11:27:06.406Z,25.80
2018-02-09T11:29:33.805Z,27.73
2018-02-09T11:32:01.260Z,27.58
2018-02-09T11:34:28.726Z,27.08
2018-02-09T11:36:56.192Z,25.80
2018-02-09T11:39:23.649Z,28.38
2018-02-09T11:41:51.096Z,28.92
2018-02-09T11:44:18.566Z,28.00
2018-02-09T11:46:46.024Z,23.70
2018-02-09T11:49:13.481Z,26.25
2018-02-09T11:51:40.972Z,25.98
2018-02-09T11:54:08.433Z,25.88
2018-02-09T11:56:35.893Z,25.73
2018-02-09T11:59:03.355Z,25.70
2018-02-09T12:01:30.813Z,23.38
2018-02-09T12:03:58.267Z,24.70
2018-02-09T12:06:25.736Z,24.42
2018-02-09T12:08:53.967Z,27.08
2018-02-09T12:11:21.424Z,26.25
2018-02-09T12:13:49.659Z,27.80
2018-02-09T12:16:17.117Z,26.45
2018-02-09T12:18:44.568Z,26.83
2018-02-09T12:21:12.037Z,25.02
2018-02-09T12:23:39.506Z,26.37
2018-02-09T12:26:06.960Z,24.87
2018-02-09T12:28:34.421Z,27.17
2018-02-09T12:31:01.880Z,26.73
2018-02-09T12:33:29.333Z,24.65
2018-02-09T12:35:56.803Z,25.42
2018-02-09T12:38:24.265Z,23.67
2018-02-09T12:40:52.497Z,24.40
2018-02-09T12:43:19.992Z,25.60
2018-02-09T12:45:47.400Z,25.62
2018-02-09T12:48:14.866Z,23.75
2018-02-09T12:50:42.316Z,25.90
2018-02-09T12:53:09.800Z,24.40
2018-02-09T12:55:37.257Z,24.90
2018-02-09T12:58:04.704Z,26.10
2018-02-09T13:00:32.165Z,24.20
2018-02-09T13:03:00.387Z,23.77
2018-02-09T13:05:27.862Z,23.90
2018-02-09T13:07:55.315Z,25.37
2018-02-09T13:10:23.186Z,26.95
2018-02-09T13:13:02.579Z,25.80
2018-02-09T13:15:30.449Z,25.17
2018-02-09T13:17:57.906Z,26.77
2018-02-09T13:20:26.150Z,26.70
2018-02-09T13:23:05.541Z,26.80
2018-02-09T13:25:33.008Z,25.65
2018-02-09T13:28:00.467Z,26.33
2018-02-09T13:30:27.923Z,26.52
2018-02-09T13:33:07.174Z,26.42
2018-02-09T13:35:34.651Z,27.45
2018-02-09T13:38:02.100Z,27.42
2018-02-09T13:40:29.567Z,28.83
2018-02-09T13:42:57.037Z,26.55
2018-02-09T13:45:24.488Z,27.62
2018-02-09T13:47:52.721Z,28.52
2018-02-09T13:50:20.184Z,26.12
2018-02-09T13:52:48.426Z,26.52
2018-02-09T13:55:17.477Z,26.77
2018-02-09T13:57:45.030Z,26.50
2018-02-09T14:00:12.493Z,25.98
2018-02-09T14:02:39.950Z,25.67
2018-02-09T14:05:07.402Z,27.08
2018-02-09T14:07:34.870Z,28.00
2018-02-09T14:10:02.337Z,25.35
2018-02-09T14:12:30.564Z,26.27
2018-02-09T14:14:58.043Z,27.20
2018-02-09T14:17:25.509Z,27.02
2018-02-09T14:19:52.974Z,27.90
2018-02-09T14:22:20.462Z,26.95
2018-02-09T14:24:48.689Z,26.42
2018-02-09T14:27:16.147Z,27.52
2018-02-09T14:29:43.626Z,29.50
2018-02-09T14:32:11.846Z,28.65
2018-02-09T14:34:39.308Z,26.67
2018-02-09T14:37:06.768Z,29.08
2018-02-09T14:39:34.219Z,27.83
2018-02-09T14:42:01.669Z,30.77
2018-02-09T14:44:29.115Z,29.45
2018-02-09T14:46:56.572Z,26.12
2018-02-09T14:49:24.792Z,26.75
2018-02-09T14:51:52.260Z,26.45
2018-02-09T14:54:20.481Z,27.92
2018-02-09T14:56:47.958Z,29.98
2018-02-09T14:59:15.408Z,29.75
2018-02-09T15:01:42.878Z,29.80
2018-02-09T15:04:10.352Z,28.77
2018-02-09T15:06:37.817Z,28.00
2018-02-09T15:09:05.290Z,29.85
2018-02-09T15:11:32.749Z,29.27
2018-02-09T15:14:00.215Z,29.37
2018-02-09T15:16:27.686Z,26.05
2018-02-09T15:18:55.902Z,27.60
2018-02-09T15:21:23.354Z,27.80
2018-02-09T15:23:50.808Z,26.50
2018-02-09T15:26:18.289Z,29.35
2018-02-09T15:28:45.797Z,26.50
2018-02-09T15:31:13.212Z,27.33
2018-02-09T15:33:40.677Z,29.48
2018-02-09T15:36:08.128Z,29.08
2018-02-09T15:38:35.599Z,29.10
2018-02-09T15:41:03.050Z,31.33
2018-02-09T15:43:30.510Z,31.50
2018-02-09T15:45:57.960Z,27.58
2018-02-09T15:48:25.428Z,25.35
2018-02-09T15:50:52.874Z,24.45
2018-02-09T15:53:20.328Z,25.90
2018-02-09T15:55:48.191Z,27.17
2018-02-09T15:58:16.055Z,31.60
2018-02-09T16:00:43.493Z,31.27
2018-02-09T16:03:10.948Z,29.87
2018-02-09T16:05:38.415Z,32.70
2018-02-09T16:08:05.886Z,31.60
2018-02-09T16:10:33.336Z,31.70
2018-02-09T16:13:00.830Z,33.72
2018-02-09T16:15:29.070Z,30.88
2018-02-09T16:17:56.546Z,31.02
2018-02-09T16:20:24.010Z,30.02
2018-02-09T16:22:52.240Z,31.25
2018-02-09T16:25:19.699Z,30.25
2018-02-09T16:27:47.166Z,31.10
2018-02-09T16:30:14.619Z,32.63
2018-02-09T16:32:42.061Z,32.60
2018-02-09T16:35:09.526Z,31.55
2018-02-09T16:37:36.988Z,28.90
2018-02-09T16:40:04.454Z,31.92
2018-02-09T16:42:32.680Z,30.40
2018-02-09T16:45:00.146Z,29.60
2018-02-09T16:47:27.605Z,27.70
2018-02-09T16:49:55.072Z,28.15
2018-02-09T16:52:23.445Z,24.95
2018-02-09T16:54:51.644Z,29.08
2018-02-09T16:57:19.115Z,29.35
2018-02-09T16:59:46.573Z,29.10
2018-02-09T17:02:14.046Z,29.73
2018-02-09T17:04:42.264Z,30.70
2018-02-09T17:07:09.734Z,28.25
2018-02-09T17:09:37.181Z,30.25
2018-02-09T17:12:04.694Z,27.13
2018-02-09T17:14:32.918Z,32.28
2018-02-09T17:17:00.388Z,28.35
2018-02-09T17:19:27.846Z,27.90
2018-02-09T17:21:55.315Z,28.45
2018-02-09T17:24:22.766Z,28.02
2018-02-09T17:26:50.235Z,29.27
2018-02-09T17:29:17.683Z,26.58
2018-02-09T17:31:45.146Z,27.83
2018-02-09T17:34:12.608Z,30.00
2018-02-09T17:36:40.064Z,32.33
2018-02-09T17:39:07.517Z,41.60
2018-02-09T17:41:34.964Z,32.15
2018-02-09T17:44:02.422Z,37.17
2018-02-09T17:46:29.890Z,30.42
2018-02-09T17:48:57.358Z,29.92
2018-02-09T17:51:24.805Z,27.98
2018-02-09T17:53:52.288Z,28.12
2018-02-09T17:56:20.492Z,30.62
2018-02-09T17:58:48.366Z,29.52
2018-02-09T18:01:16.216Z,32.05
2018-02-09T18:03:43.656Z,30.08
2018-02-09T18:06:11.888Z,33.05
2018-02-09T18:08:39.354Z,32.78
2018-02-09T18:11:06.814Z,30.25
2018-02-09T18:13:34.251Z,30.98
2018-02-09T18:16:01.710Z,29.70
2018-02-09T18:18:29.162Z,30.95
2018-02-09T18:20:56.623Z,30.33
2018-02-09T18:23:24.073Z,30.08
2018-02-09T18:25:51.538Z,31.37
2018-02-09T18:28:19.005Z,31.58
2018-02-09T18:30:46.468Z,33.72
2018-02-09T18:33:14.679Z,33.65
2018-02-09T18:35:42.150Z,29.73
2018-02-09T18:38:09.613Z,32.03
2018-02-09T18:40:37.487Z,30.98
2018-02-09T18:43:04.942Z,32.92
2018-02-09T18:45:32.400Z,34.33
2018-02-09T18:47:59.847Z,34.63
2018-02-09T18:50:27.326Z,31.40
2018-02-09T18:52:54.976Z,29.80
2018-02-09T18:55:22.874Z,28.90
2018-02-09T18:57:50.272Z,31.67
2018-02-09T19:00:17.729Z,30.20
2018-02-09T19:02:45.595Z,31.98
2018-02-09T19:05:13.051Z,32.83
2018-02-09T19:07:40.499Z,29.73
2018-02-09T19:10:08.718Z,34.00
2018-02-09T19:12:36.198Z,33.75
2018-02-09T19:15:03.657Z,29.85
2018-02-09T19:17:31.126Z,32.05
2018-02-09T19:19:59.344Z,30.98
2018-02-09T19:22:27.668Z,30.23
2018-02-09T19:24:55.120Z,32.20
2018-02-09T19:27:22.586Z,32.20
2018-02-09T19:29:50.045Z,32.67
2018-02-09T19:32:17.501Z,32.95
2018-02-09T19:34:45.748Z,33.55
2018-02-09T19:37:13.194Z,33.90
2018-02-09T19:39:40.644Z,32.47
2018-02-09T19:42:08.141Z,34.55
2018-02-09T19:44:35.590Z,33.50
2018-02-09T19:47:03.047Z,32.38
2018-02-09T19:49:30.572Z,31.23
2018-02-09T19:51:58.024Z,34.35
2018-02-09T19:54:25.524Z,30.15
2018-02-09T19:56:52.996Z,31.05
2018-02-09T19:59:21.224Z,31.77
2018-02-09T20:01:49.435Z,34.92
2018-02-09T20:04:16.898Z,34.83
2018-02-09T20:06:45.120Z,37.08
2018-02-09T20:09:12.586Z,34.20
2018-02-09T20:11:40.040Z,36.13
2018-02-09T20:14:07.497Z,33.67
2018-02-09T20:16:34.950Z,32.50
2018-02-09T20:19:02.404Z,33.90
2018-02-09T20:21:29.868Z,35.13
2018-02-09T20:23:57.327Z,33.72
2018-02-09T20:26:24.898Z,31.95
2018-02-09T20:28:52.324Z,31.77
2018-02-09T20:31:20.566Z,34.42
2018-02-09T20:33:48.839Z,32.13
2018-02-09T20:36:16.400Z,37.58
2018-02-09T20:38:43.844Z,35.90
2018-02-09T20:41:11.286Z,37.20
2018-02-09T20:43:38.733Z,33.00
2018-02-09T20:46:06.181Z,32.42
2018-02-09T20:48:33.631Z,33.38
2018-02-09T20:51:01.099Z,33.95
2018-02-09T20:53:28.544Z,34.17
2018-02-09T20:55:56.000Z,32.75
2018-02-09T20:58:24.244Z,35.42
2018-02-09T21:00:52.105Z,35.10
2018-02-09T21:03:19.970Z,37.78
2018-02-09T21:05:48.189Z,35.03
2018-02-09T21:08:15.685Z,35.15
2018-02-09T21:10:43.139Z,33.95
2018-02-09T21:13:10.593Z,38.03
2018-02-09T21:15:38.060Z,34.75
2018-02-09T21:18:05.529Z,38.28
2018-02-09T21:20:32.982Z,36.80
2018-02-09T21:23:01.247Z,34.58
2018-02-09T21:25:28.706Z,35.03
2018-02-09T21:27:56.924Z,34.80
2018-02-09T21:30:24.386Z,34.70
2018-02-09T21:32:51.841Z,37.33
2018-02-09T21:35:19.307Z,38.05
2018-02-09T21:37:47.387Z,35.10
2018-02-09T21:40:14.840Z,36.03
2018-02-09T21:42:42.310Z,36.30
2018-02-09T21:45:09.773Z,37.10
2018-02-09T21:47:37.238Z,80.32
2018-02-09T21:50:04.676Z,38.63
2018-02-09T21:52:32.904Z,47.03
2018-02-09T21:55:01.130Z,35.70
2018-02-09T21:57:28.582Z,37.95
2018-02-09T21:59:56.030Z,41.33
2018-02-09T22:02:23.473Z,38.20
2018-02-09T22:04:50.921Z,37.88
2018-02-09T22:07:18.376Z,35.47
2018-02-09T22:09:45.830Z,36.40
2018-02-09T22:12:13.299Z,39.70
2018-02-09T22:14:40.756Z,36.38
2018-02-09T22:17:08.223Z,35.05
2018-02-09T22:19:35.808Z,37.35
2018-02-09T22:22:03.257Z,34.92
2018-02-09T22:24:30.709Z,37.97
2018-02-09T22:26:58.916Z,38.65
2018-02-09T22:29:27.154Z,39.90
2018-02-09T22:31:54.616Z,38.70
2018-02-09T22:34:22.093Z,40.40
2018-02-09T22:36:49.557Z,38.75
2018-02-09T22:39:17.014Z,38.47
2018-02-09T22:41:45.263Z,40.35
2018-02-09T22:44:12.685Z,38.67
2018-02-09T22:46:40.198Z,35.83
2018-02-09T22:49:07.645Z,37.30
2018-02-09T22:51:35.502Z,39.47
2018-02-09T22:54:02.971Z,38.03
2018-02-09T22:56:30.422Z,39.80
2018-02-09T22:58:57.870Z,35.05
2018-02-09T23:01:25.330Z,38.13
2018-02-09T23:03:52.780Z,41.40
2018-02-09T23:06:20.250Z,40.05
2018-02-09T23:08:47.700Z,36.65
2018-02-09T23:11:15.170Z,37.10
2018-02-09T23:13:42.621Z,37.38
2018-02-09T23:16:10.072Z,37.30
2018-02-09T23:18:37.539Z,39.63
2018-02-09T23:21:05.009Z,41.37
2018-02-09T23:23:33.231Z,36.80
2018-02-09T23:26:00.684Z,39.80
2018-02-09T23:28:28.145Z,37.83
2018-02-09T23:30:55.609Z,37.67
2018-02-09T23:33:23.052Z,35.80
2018-02-09T23:35:50.516Z,38.50
2018-02-09T23:38:17.980Z,34.92
2018-02-09T23:40:45.434Z,33.67
2018-02-09T23:43:13.302Z,34.60
2018-02-09T23:45:41.167Z,36.00
2018-02-09T23:48:09.374Z,36.60
2018-02-09T23:50:36.823Z,36.00
2018-02-09T23:53:04.283Z,36.15
2018-02-09T23:55:31.747Z,39.40
2018-02-09T23:57:59.974Z,39.30
